Map

Track Data

SID SEASON NUMBER BASIN SUBBASIN NAME ISO_TIME NATURE LAT LON WMO_WIND WMO_PRES WMO_AGENCY TRACK_TYPE DIST2LAND LANDFALL IFLAG USA_AGENCY USA_ATCF_ID USA_LAT USA_LON USA_RECORD USA_STATUS USA_WIND USA_PRES USA_SSHS USA_R34_NE USA_R34_SE USA_R34_SW USA_R34_NW USA_R50_NE USA_R50_SE USA_R50_SW USA_R50_NW USA_R64_NE USA_R64_SE USA_R64_SW USA_R64_NW USA_POCI USA_ROCI USA_RMW USA_EYE TOKYO_LAT TOKYO_LON TOKYO_GRADE TOKYO_WIND TOKYO_PRES TOKYO_R50_DIR TOKYO_R50_LONG TOKYO_R50_SHORT TOKYO_R30_DIR TOKYO_R30_LONG TOKYO_R30_SHORT TOKYO_LAND CMA_LAT CMA_LON CMA_CAT CMA_WIND CMA_PRES HKO_LAT HKO_LON HKO_CAT HKO_WIND HKO_PRES NEWDELHI_LAT NEWDELHI_LON NEWDELHI_GRADE NEWDELHI_WIND NEWDELHI_PRES NEWDELHI_CI NEWDELHI_DP NEWDELHI_POCI REUNION_LAT REUNION_LON REUNION_TYPE REUNION_WIND REUNION_PRES REUNION_TNUM REUNION_CI REUNION_RMW REUNION_R34_NE REUNION_R34_SE REUNION_R34_SW REUNION_R34_NW REUNION_R50_NE REUNION_R50_SE REUNION_R50_SW REUNION_R50_NW REUNION_R64_NE REUNION_R64_SE REUNION_R64_SW REUNION_R64_NW BOM_LAT BOM_LON BOM_TYPE BOM_WIND BOM_PRES BOM_TNUM BOM_CI BOM_RMW BOM_R34_NE BOM_R34_SE BOM_R34_SW BOM_R34_NW BOM_R50_NE BOM_R50_SE BOM_R50_SW BOM_R50_NW BOM_R64_NE BOM_R64_SE BOM_R64_SW BOM_R64_NW BOM_ROCI BOM_POCI BOM_EYE BOM_POS_METHOD BOM_PRES_METHOD NADI_LAT NADI_LON NADI_CAT NADI_WIND NADI_PRES WELLINGTON_LAT WELLINGTON_LON WELLINGTON_WIND WELLINGTON_PRES DS824_LAT DS824_LON DS824_STAGE DS824_WIND DS824_PRES TD9636_LAT TD9636_LON TD9636_STAGE TD9636_WIND TD9636_PRES TD9635_LAT TD9635_LON TD9635_WIND TD9635_PRES TD9635_ROCI NEUMANN_LAT NEUMANN_LON NEUMANN_CLASS NEUMANN_WIND NEUMANN_PRES MLC_LAT MLC_LON MLC_CLASS MLC_WIND MLC_PRES USA_GUST BOM_GUST BOM_GUST_PER REUNION_GUST REUNION_GUST_PER USA_SEAHGT USA_SEARAD_NE USA_SEARAD_SE USA_SEARAD_SW USA_SEARAD_NW STORM_SPEED STORM_DIR
1992237N14144 1992 74 WP MM POLLY 1992-08-23 12:00:00 NR 14.0000 144.300 main 1821 1821 O_____________ jtwc_wp WP161992 14.0000 144.300 20 -1 9 275
1992237N14144 1992 74 WP MM POLLY 1992-08-23 15:00:00 NR 14.0402 143.850 main 1828 1828 P_____________ WP161992 14.0402 143.850 20 -1 9 277
1992237N14144 1992 74 WP MM POLLY 1992-08-23 18:00:00 NR 14.1000 143.400 main 1848 1840 O_____________ jtwc_wp WP161992 14.1000 143.400 20 -1 9 280
1992237N14144 1992 74 WP MM POLLY 1992-08-23 21:00:00 NR 14.1924 142.950 main 1847 1838 P_____________ WP161992 14.1924 142.950 20 -1 9 283
1992237N14144 1992 74 WP MM POLLY 1992-08-24 00:00:00 NR 14.3000 142.500 main 1841 1809 O_____________ jtwc_wp WP161992 14.3000 142.500 20 -1 9 283
1992237N14144 1992 74 WP MM POLLY 1992-08-24 03:00:00 NR 14.3924 142.050 main 1798 1758 P_____________ WP161992 14.3924 142.050 20 -1 9 283
1992237N14144 1992 74 WP MM POLLY 1992-08-24 06:00:00 NR 14.5000 141.600 main 1758 1718 O_____________ jtwc_wp WP161992 14.5000 141.600 20 -1 9 286
1992237N14144 1992 74 WP MM POLLY 1992-08-24 09:00:00 NR 14.6349 141.150 main 1707 1669 P_____________ WP161992 14.6349 141.150 20 -1 9 289
1992237N14144 1992 74 WP MM POLLY 1992-08-24 12:00:00 NR 14.8000 140.700 main 1669 1628 O_____________ jtwc_wp WP161992 14.8000 140.700 20 -1 9 291
1992237N14144 1992 74 WP MM POLLY 1992-08-24 15:00:00 NR 14.9700 140.242 main 1619 1581 P_____________ WP161992 14.9700 140.242 20 -1 10 295
1992237N14144 1992 74 WP MM POLLY 1992-08-24 18:00:00 NR 15.2000 139.800 main 1581 1545 O_____________ jtwc_wp WP161992 15.2000 139.800 20 -1 10 304
1992237N14144 1992 74 WP MM POLLY 1992-08-24 21:00:00 NR 15.5198 139.407 main 1545 1514 P_____________ WP161992 15.5198 139.407 20 -1 10 312
1992237N14144 1992 74 WP MM POLLY 1992-08-25 00:00:00 NR 15.9000 139.000 main 1514 1481 O_____________ jtwc_wp WP161992 15.9000 139.000 20 -1 12 312
1992237N14144 1992 74 WP MM POLLY 1992-08-25 03:00:00 NR 16.2999 138.522 main 1474 1437 P_____________ WP161992 16.2999 138.522 22 -1 13 310
1992237N14144 1992 74 WP MM POLLY 1992-08-25 06:00:00 NR 16.7000 138.000 main 1437 1398 O_____________ jtwc_wp WP161992 16.7000 138.000 25 -1 13 306
1992237N14144 1992 74 WP MM POLLY 1992-08-25 09:00:00 NR 17.0274 137.464 main 1398 1356 P_____________ WP161992 17.0274 137.464 25 -1 13 304
1992237N14144 1992 74 WP MM POLLY 1992-08-25 12:00:00 NR 17.4000 136.900 main 1356 1323 O_____________ jtwc_wp WP161992 17.4000 136.900 25 -1 14 309
1992237N14144 1992 74 WP MM POLLY 1992-08-25 15:00:00 NR 17.9198 136.315 main 1323 1301 P_____________ WP161992 17.9198 136.315 25 -1 16 314
1992237N14144 1992 74 WP MM POLLY 1992-08-25 18:00:00 NR 18.5000 135.700 main 1301 1275 O_____________ jtwc_wp WP161992 18.5000 135.700 25 -1 17 314
1992237N14144 1992 74 WP MM POLLY 1992-08-25 21:00:00 NR 19.0648 135.065 main 1280 1240 P_____________ WP161992 19.0648 135.065 25 -1 17 312
1992237N14144 1992 74 WP MM POLLY 1992-08-26 00:00:00 NR 19.6000 134.400 main 1240 1210 O_____________ jtwc_wp WP161992 19.6000 134.400 25 -1 16 309
1992237N14144 1992 74 WP MM POLLY 1992-08-26 03:00:00 NR 20.0871 133.722 main 1207 1145 P_____________ WP161992 20.0871 133.722 27 -1 16 304
1992237N14144 1992 74 WP MM POLLY 1992-08-26 06:00:00 NR 20.5000 133.000 main 1145 1081 O_____________ jtwc_wp WP161992 20.5000 133.000 30 -1 16 299
1992237N14144 1992 74 WP MM POLLY 1992-08-26 09:00:00 NR 20.8521 132.230 main 1073 998 P_____________ WP161992 20.8521 132.230 32 -1 16 292
1992237N14144 1992 74 WP MM POLLY 1992-08-26 12:00:00 NR 21.1000 131.400 main 998 913 O_____________ jtwc_wp WP161992 21.1000 131.400 35 0 17 283
1992237N14144 1992 74 WP MM POLLY 1992-08-26 15:00:00 NR 21.2151 130.492 main 913 792 P_____________ WP161992 21.2151 130.492 37 0 20 269
1992237N14144 1992 74 WP MM POLLY 1992-08-26 18:00:00 TS 21.0800 129.280 main 792 715 O_O___________ jtwc_wp WP161992 21.3000 129.600 40 0 20.2000 128.000 1 29 998 19 267
1992237N14144 1992 74 WP MM POLLY 1992-08-26 21:00:00 TS 21.1065 128.449 main 706 659 P_P___________ WP161992 21.4922 128.798 40 0 20.3351 127.750 1 33 996 13 271
1992237N14144 1992 74 WP MM POLLY 1992-08-27 00:00:00 TS 21.1000 127.925 998 tokyo main 659 631 OOO___________ jtwc_wp WP161992 21.7000 128.100 40 0 20.5000 128.500 2 998 0 0 0 20.5000 127.500 2 38 995 8 273
1992237N14144 1992 74 WP MM POLLY 1992-08-27 03:00:00 TS 21.1568 127.565 main 636 615 PPP___________ WP161992 21.8572 127.497 40 0 20.6296 128.330 2 996 0 0 20.7200 127.250 2 38 995 6 289
1992237N14144 1992 74 WP MM POLLY 1992-08-27 06:00:00 TS 21.3091 127.273 994 tokyo main 615 592 OOO___________ jtwc_wp WP161992 22.0000 127.000 40 0 20.8000 128.000 2 994 0 0 0 21.0000 127.000 2 38 995 7 301
1992237N14144 1992 74 WP MM POLLY 1992-08-27 09:00:00 TS 21.5217 126.922 main 592 540 PPP___________ WP161992 22.1497 126.577 40 0 21.0355 127.423 2 994 0 0 21.3799 126.765 2 38 992 10 306
1992237N14144 1992 74 WP MM POLLY 1992-08-27 12:00:00 TS 21.8769 126.446 994 tokyo main 530 485 OOOO__________ jtwc_wp WP161992 22.3000 126.200 40 0 21.3000 126.800 2 994 0 0 0 21.7000 126.500 2 38 990 23.2000 125.800 TD 25 985 10 305
1992237N14144 1992 74 WP MM POLLY 1992-08-27 15:00:00 TS 22.1046 126.019 main 485 442 PPPP__________ WP161992 22.4649 125.800 40 0 21.5571 126.370 2 992 0 0 21.7876 126.157 2 38 990 23.1127 125.482 TD 25 985 8 296
1992237N14144 1992 74 WP MM POLLY 1992-08-27 18:00:00 TS 22.2533 125.627 35 990 tokyo main 439 407 OOOO__________ jtwc_wp WP161992 22.6000 125.400 40 0 21.8000 126.000 3 35 990 0 8 300 200 0 21.8000 125.800 2 38 990 23.0000 125.200 TD 25 985 8 290
1992237N14144 1992 74 WP MM POLLY 1992-08-27 21:00:00 TS 22.3624 125.255 main 407 377 PPPP__________ WP161992 22.6725 124.977 40 0 22.0273 125.580 3 37 990 0 8 375 175 21.8999 125.485 2 43 987 22.8499 124.978 TD 25 985 6 282
1992237N14144 1992 74 WP MM POLLY 1992-08-28 00:00:00 TS 22.3800 124.960 40 990 tokyo main 377 347 OOOO__________ jtwc_wp WP161992 22.7000 124.600 40 0 22.2000 125.200 3 40 990 0 2 450 150 0 22.0000 125.200 3 48 985 22.7000 124.800 TD 25 985 5 273
1992237N14144 1992 74 WP MM POLLY 1992-08-28 03:00:00 TS 22.3882 124.708 40 990 tokyo main 347 327 POPP__________ WP161992 22.7074 124.312 40 0 22.3000 124.900 3 40 990 0 2 500 150 0 22.0574 124.942 3 48 985 22.5875 124.645 TD 25 985 5 277
1992237N14144 1992 74 WP MM POLLY 1992-08-28 06:00:00 TS 22.4385 124.469 45 985 tokyo main 327 307 OOOO__________ jtwc_wp WP161992 22.7000 124.100 40 0 22.5000 124.600 3 45 985 0 2 500 150 0 22.1000 124.700 3 48 985 22.5000 124.500 TD 25 985 4 278
1992237N14144 1992 74 WP MM POLLY 1992-08-28 09:00:00 TS 22.4475 124.257 45 985 tokyo main 307 284 POP___________ WP161992 22.6999 123.935 40 0 22.5000 124.400 3 45 985 0 2 500 150 0 22.1425 124.435 3 48 985 TD 4 279
1992237N14144 1992 74 WP MM POLLY 1992-08-28 12:00:00 TS 22.5000 124.067 45 985 tokyo main 284 264 OOO___________ jtwc_wp WP161992 22.7000 123.800 40 0 22.6000 124.200 3 45 985 0 2 450 200 0 22.2000 124.200 3 48 985 3 284
1992237N14144 1992 74 WP MM POLLY 1992-08-28 15:00:00 TS 22.5308 123.900 45 985 tokyo main 264 242 POP___________ WP161992 22.7000 123.650 42 0 22.6000 124.000 3 45 985 0 2 450 200 0 22.2924 124.050 3 53 982 3 288
1992237N14144 1992 74 WP MM POLLY 1992-08-28 18:00:00 TS 22.6000 123.733 45 985 tokyo main 242 232 OOO___________ jtwc_wp WP161992 22.7000 123.500 45 0 22.7000 123.800 3 45 985 0 2 450 200 0 22.4000 123.900 3 58 980 3 286
1992237N14144 1992 74 WP MM POLLY 1992-08-28 21:00:00 TS 22.6258 123.541 45 985 tokyo main 222 199 POP___________ WP161992 22.6924 123.365 45 0 22.7000 123.600 3 45 985 0 2 500 250 0 22.4851 123.657 3 63 980 4 285
1992237N14144 1992 74 WP MM POLLY 1992-08-29 00:00:00 TS 22.7000 123.333 45 985 tokyo main 199 177 OOO___________ jtwc_wp WP161992 22.7000 123.200 45 0 22.8000 123.400 3 45 985 0 2 500 250 0 22.6000 123.400 4 68 980 4 296
1992237N14144 1992 74 WP MM POLLY 1992-08-29 03:00:00 TS 22.8167 123.119 50 980 tokyo main 177 155 POP___________ WP161992 22.7426 122.958 47 0 22.9000 123.200 4 50 980 0 1 550 250 0 22.8074 123.200 4 68 977 4 301
1992237N14144 1992 74 WP MM POLLY 1992-08-29 06:00:00 TS 22.9231 122.938 50 980 tokyo main 155 143 OOO___________ jtwc_wp WP161992 22.8000 122.700 50 0 23.0000 123.000 4 50 980 0 1 550 250 0 23.0000 123.000 4 68 975 4 297
1992237N14144 1992 74 WP MM POLLY 1992-08-29 09:00:00 TS 22.9886 122.757 50 980 tokyo main 143 123 POP___________ WP161992 22.8425 122.485 50 0 23.1000 122.800 4 50 980 0 1 550 270 0 23.0725 122.757 4 68 975 3 293
1992237N14144 1992 74 WP MM POLLY 1992-08-29 12:00:00 TS 23.0533 122.600 50 980 tokyo main 122 102 OOO___________ jtwc_wp WP161992 22.9000 122.300 50 0 23.2000 122.700 4 50 980 0 2 550 270 0 23.1000 122.500 4 68 975 4 294
1992237N14144 1992 74 WP MM POLLY 1992-08-29 15:00:00 TS 23.1369 122.398 50 980 tokyo main 102 81 POP___________ WP161992 22.9850 122.120 47 0 23.3000 122.500 4 50 980 0 2 550 270 0 23.1201 122.220 4 68 975 4 300
1992237N14144 1992 74 WP MM POLLY 1992-08-29 18:00:00 TS 23.2500 122.225 50 980 tokyo main 81 69 OOO___________ jtwc_wp WP161992 23.1000 122.000 45 0 23.4000 122.400 4 50 980 0 2 550 270 0 23.2000 122.000 4 68 975 4 319
1992237N14144 1992 74 WP MM POLLY 1992-08-29 21:00:00 TS 23.4187 122.134 55 975 tokyo main 69 62 POP___________ WP161992 23.2049 122.007 45 0 23.6000 122.300 4 55 975 9 30 30 2 550 270 0 23.4274 121.942 4 68 975 4 337
1992237N14144 1992 74 WP MM POLLY 1992-08-30 00:00:00 TS 23.6250 122.050 55 975 tokyo main 62 40 OOO___________ jtwc_wp WP161992 23.4000 122.000 45 0 23.8000 122.200 4 55 975 9 30 30 2 550 270 0 23.7000 121.900 4 68 975 5 333
1992237N14144 1992 74 WP MM POLLY 1992-08-30 03:00:00 TS 23.8506 121.889 55 975 tokyo main 37 10 POP___________ WP161992 23.7775 121.845 42 0 24.0000 122.000 4 55 975 9 30 30 2 550 270 0 23.8700 121.730 4 63 975 6 326
1992237N14144 1992 74 WP MM POLLY 1992-08-30 06:00:00 TS 24.1250 121.675 55 975 tokyo main 10 0 OOO___________ jtwc_wp WP161992 24.2000 121.600 40 0 24.2000 121.800 4 55 975 9 30 30 2 550 270 0 24.1000 121.500 3 58 975 8 326
1992237N14144 1992 74 WP MM POLLY 1992-08-30 09:00:00 TS 24.5149 121.391 55 975 tokyo main 0 0 POP___________ WP161992 24.5450 121.323 35 0 24.5000 121.500 4 55 975 9 30 30 2 500 300 0 24.5647 121.295 3 58 975 10 324
1992237N14144 1992 74 WP MM POLLY 1992-08-30 12:00:00 TS 24.9250 121.025 55 975 tokyo main 0 0 OOO___________ jtwc_wp WP161992 24.8000 121.000 30 -1 25.0000 121.100 4 55 975 9 30 30 2 500 300 0 25.0000 121.000 3 58 975 9 313
1992237N14144 1992 74 WP MM POLLY 1992-08-30 15:00:00 TS 25.1300 120.667 55 975 tokyo main 32 32 POP___________ WP161992 24.9374 120.665 30 -1 25.3000 120.900 4 55 975 9 30 30 2 500 300 0 25.1375 120.552 3 53 975 8 295
1992237N14144 1992 74 WP MM POLLY 1992-08-30 18:00:00 TS 25.2500 120.250 55 975 tokyo main 61 10 OOO___________ jtwc_wp WP161992 25.0000 120.300 30 -1 25.5000 120.600 4 55 975 9 30 30 2 500 300 0 25.2000 120.000 3 48 975 8 287
1992237N14144 1992 74 WP MM POLLY 1992-08-30 21:00:00 TS 25.3751 119.778 55 975 tokyo main 10 0 POP___________ WP161992 25.0350 119.907 30 -1 25.6000 120.200 4 55 975 9 30 30 2 500 300 0 25.4006 119.333 3 43 976 9 285
1992237N14144 1992 74 WP MM POLLY 1992-08-31 00:00:00 TS 25.4667 119.327 50 980 tokyo main 10 0 OOO___________ jtwc_wp WP161992 25.1000 119.500 30 -1 25.6000 119.700 4 50 980 0 2 600 200 0 25.6000 118.800 2 38 978 7 284
1992237N14144 1992 74 WP MM POLLY 1992-08-31 03:00:00 TS 25.5438 119.020 main 0 0 PPP___________ WP161992 25.2173 119.114 27 -1 25.6329 119.292 4 47 982 0 2 600 200 25.6996 118.652 2 38 980 5 294
1992237N14144 1992 74 WP MM POLLY 1992-08-31 06:00:00 TS 25.6769 118.800 45 985 tokyo main 0 0 OOO___________ jtwc_wp WP161992 25.5000 118.700 25 -1 25.7000 119.000 3 45 985 0 2 600 200 0 25.8000 118.700 2 38 982 5 310
1992237N14144 1992 74 WP MM POLLY 1992-08-31 09:00:00 TS 25.8792 118.573 main 0 0 PPP___________ WP161992 26.0778 118.179 22 -1 25.6424 118.790 3 987 0 2 25.9175 118.750 2 30 984 7 327
1992237N14144 1992 74 WP MM POLLY 1992-08-31 12:00:00 TS 26.2727 118.364 990 tokyo main 0 0 OOO___________ jtwc_wp WP161992 26.7000 117.700 20 -1 25.9000 118.700 2 990 0 0 0 26.2000 118.800 1 23 986 10 339
1992237N14144 1992 74 WP MM POLLY 1992-08-31 15:00:00 TS 26.8261 118.172 main 0 0 PPP___________ WP161992 26.9448 117.330 20 -1 26.7379 118.713 2 990 0 0 26.7650 118.775 1 21 987 15 354
1992237N14144 1992 74 WP MM POLLY 1992-08-31 18:00:00 TS 27.7625 118.188 990 tokyo main 0 0 OOO___________ jtwc_wp WP161992 27.4000 117.200 20 -1 28.1000 118.800 2 990 0 0 0 27.5000 118.700 0 19 988 27 4
1992237N14144 1992 74 WP MM POLLY 1992-08-31 21:00:00 TS 29.4760 118.404 main 0 0 PP____________ WP161992 28.4980 117.399 20 -1 29.9651 118.906 2 991 0 0 0 37 8
1992237N14144 1992 74 WP MM POLLY 1992-09-01 00:00:00 TS 31.4400 118.760 992 tokyo main 0 0 OO____________ jtwc_wp WP161992 30.0000 117.800 20 -1 31.8000 119.000 2 992 0 0 0 35 6
1992237N14144 1992 74 WP MM POLLY 1992-09-01 03:00:00 TS 32.9894 118.824 main 0 0 _P____________ WP161992 -1 32.9868 118.943 2 992 0 0 24 4
1992237N14144 1992 74 WP MM POLLY 1992-09-01 06:00:00 TS 33.8000 118.933 992 tokyo main 0 0 _O____________ -1 33.8000 119.000 2 992 0 0 0 16 18
1992237N14144 1992 74 WP MM POLLY 1992-09-01 09:00:00 TS 34.4700 119.392 main 0 0 _P____________ -1 34.5128 119.423 2 993 0 0 15 36
1992237N14144 1992 74 WP MM POLLY 1992-09-01 12:00:00 TS 35.0000 120.000 994 tokyo main 55 55 _O____________ -1 35.0000 120.000 2 994 0 0 0 13 48
1992237N14144 1992 74 WP MM POLLY 1992-09-01 15:00:00 TS 35.3026 120.538 main 63 63 _P____________ -1 35.3026 120.538 2 995 0 0 10 59
1992237N14144 1992 74 WP MM POLLY 1992-09-01 18:00:00 TS 35.5000 121.000 996 tokyo main 72 63 _O____________ -1 35.5000 121.000 2 996 0 0 0 7 52
1992237N14144 1992 74 WP MM POLLY 1992-09-01 21:00:00 TS 35.7493 121.251 main 69 58 _P____________ -1 35.7493 121.251 2 998 0 0 6 39
1992237N14144 1992 74 WP MM POLLY 1992-09-02 00:00:00 ET 36.0000 121.500 1000 tokyo main 69 58 _O____________ -1 36.0000 121.500 6 1000 0 0 0 8 51
1992237N14144 1992 74 WP MM POLLY 1992-09-02 03:00:00 ET 36.2279 121.985 main 66 34 _P____________ -1 36.2279 121.985 6 1000 0 0 9 58
1992237N14144 1992 74 WP MM POLLY 1992-09-02 06:00:00 ET 36.5000 122.500 1000 tokyo main 37 28 _O____________ -1 36.5000 122.500 6 1000 0 0 0 9 51
1992237N14144 1992 74 WP MM POLLY 1992-09-02 09:00:00 ET 36.8096 122.866 main 37 35 _P____________ -1 36.8096 122.866 6 1001 0 0 10 35
1992237N14144 1992 74 WP MM POLLY 1992-09-02 12:00:00 ET 37.3000 123.200 1002 tokyo main 52 52 _O____________ -1 37.3000 123.200 6 1002 0 0 0 15 25
1992237N14144 1992 74 WP MM POLLY 1992-09-02 15:00:00 ET 38.1354 123.650 main 95 84 _P____________ -1 38.1354 123.650 6 1001 0 0 18 20
1992237N14144 1992 74 WP MM POLLY 1992-09-02 18:00:00 ET 39.0000 124.000 1000 tokyo main 84 33 _O____________ -1 39.0000 124.000 6 1000 0 0 0 14 11
1992237N14144 1992 74 WP MM POLLY 1992-09-02 21:00:00 ET 39.5519 123.988 main 22 0 _P____________ -1 39.5519 123.988 6 1000 0 0 10 1
1992237N14144 1992 74 WP MM POLLY 1992-09-03 00:00:00 ET 40.0000 124.000 1000 tokyo main 0 0 _O____________ -1 40.0000 124.000 6 1000 0 0 0 11 14
1992237N14144 1992 74 WP MM POLLY 1992-09-03 03:00:00 ET 40.5731 124.311 main 0 0 _P____________ -1 40.5731 124.311 6 999 0 0 13 37
1992237N14144 1992 74 WP MM POLLY 1992-09-03 06:00:00 ET 41.0000 125.000 998 tokyo main 0 0 _O____________ -1 41.0000 125.000 6 998 0 0 0 14 69
1992237N14144 1992 74 WP MM POLLY 1992-09-03 09:00:00 ET 41.0736 126.065 main 0 0 _P____________ -1 41.0736 126.065 6 999 0 0 19 90
1992237N14144 1992 74 WP MM POLLY 1992-09-03 12:00:00 ET 41.0000 127.500 1000 tokyo main 0 0 _O____________ -1 41.0000 127.500 6 1000 0 0 0 24 92
1992237N14144 1992 74 WP MM POLLY 1992-09-03 15:00:00 ET 41.0021 129.213 main 0 0 _P____________ -1 41.0021 129.213 6 1000 0 0 26 90
1992237N14144 1992 74 WP MM POLLY 1992-09-03 18:00:00 ET 41.0000 131.000 1000 tokyo main 108 108 _O____________ -1 41.0000 131.000 6 1000 0 0 0 26 88
1992237N14144 1992 74 WP MM POLLY 1992-09-03 21:00:00 ET 41.0759 132.684 main 178 177 _P____________ -1 41.0759 132.684 6 1000 0 0 23 90
1992237N14144 1992 74 WP MM POLLY 1992-09-04 00:00:00 ET 41.0000 134.000 1000 tokyo main 201 201 _O____________ -1 41.0000 134.000 6 1000 0 0 0 15 111
1992237N14144 1992 74 WP MM POLLY 1992-09-04 03:00:00 ET 40.5327 134.574 main 266 266 _P____________ -1 40.5327 134.574 6 1000 0 0 13 143
1992237N14144 1992 74 WP MM POLLY 1992-09-04 06:00:00 ET 40.0000 135.000 1000 tokyo main 328 270 _O____________ -1 40.0000 135.000 6 1000 0 0 0 13 131
1992237N14144 1992 74 WP MM POLLY 1992-09-04 09:00:00 ET 39.6798 135.851 main 267 233 _P____________ -1 39.6798 135.851 6 1000 0 0 16 108
1992237N14144 1992 74 WP MM POLLY 1992-09-04 12:00:00 ET 39.5000 137.000 1000 tokyo main 233 _O____________ -1 39.5000 137.000 6 1000 0 0 0 18 101

Digital Typhoon Data and Search

About IBTrACS Database

This database is a web-friendly format of International Best Track Archive for Climate Stewardship (IBTrACS), a global best track data archive curated by NOAA dating back to 1842.

Updated: 2021-10-25